createdAt,value
2019-04-03T00:00:23.303Z,8.52
2019-04-03T00:02:51.415Z,10.25
2019-04-03T00:05:20.223Z,9.88
2019-04-03T00:07:48.301Z,9.90
2019-04-03T00:10:16.347Z,9.05
2019-04-03T00:12:45.143Z,9.52
2019-04-03T00:15:13.645Z,8.70
2019-04-03T00:17:41.999Z,8.37
2019-04-03T00:20:11.018Z,8.98
2019-04-03T00:22:39.046Z,10.02
2019-04-03T00:25:07.931Z,7.72
2019-04-03T00:27:35.889Z,9.43
2019-04-03T00:30:04.778Z,9.23
2019-04-03T00:32:32.818Z,8.25
2019-04-03T00:35:00.863Z,9.27
2019-04-03T00:37:28.934Z,9.07
2019-04-03T00:39:56.975Z,9.43
2019-04-03T00:42:25.775Z,8.63
2019-04-03T00:44:54.718Z,7.83
2019-04-03T00:47:21.891Z,7.53
2019-04-03T00:49:49.987Z,9.83
2019-04-03T00:52:18.022Z,9.43
2019-04-03T00:54:46.066Z,9.32
2019-04-03T00:57:14.199Z,6.87
2019-04-03T00:59:42.265Z,10.05
2019-04-03T01:02:11.076Z,9.40
2019-04-03T01:04:39.127Z,7.30
2019-04-03T01:07:07.942Z,12.23
2019-04-03T01:09:35.970Z,9.10
2019-04-03T01:12:04.786Z,8.57
2019-04-03T01:14:32.860Z,10.93
2019-04-03T01:17:03.539Z,8.35
2019-04-03T01:19:29.712Z,8.82
2019-04-03T01:21:57.754Z,12.37
2019-04-03T01:24:26.663Z,9.57
2019-04-03T01:26:54.702Z,8.90
2019-04-03T01:29:22.813Z,10.93
2019-04-03T01:31:50.851Z,9.70
2019-04-03T01:34:19.676Z,10.38
2019-04-03T01:36:48.252Z,10.95
2019-04-03T01:39:15.871Z,11.88
2019-04-03T01:41:44.613Z,10.73
2019-04-03T01:44:12.875Z,12.35
2019-04-03T01:46:41.129Z,10.25
2019-04-03T01:49:09.871Z,9.05
2019-04-03T01:51:37.903Z,11.90
2019-04-03T01:54:06.106Z,10.23
2019-04-03T01:56:35.646Z,9.43
2019-04-03T01:59:04.762Z,10.80
2019-04-03T02:01:31.611Z,9.38
2019-04-03T02:03:59.651Z,10.07
2019-04-03T02:06:27.759Z,11.07
2019-04-03T02:08:55.826Z,10.90
2019-04-03T02:11:23.929Z,10.98
2019-04-03T02:13:51.976Z,9.43
2019-04-03T02:16:20.029Z,11.45
2019-04-03T02:18:48.835Z,12.18
2019-04-03T02:21:16.903Z,10.23
2019-04-03T02:23:44.943Z,9.88
2019-04-03T02:26:13.859Z,11.05
2019-04-03T02:28:41.965Z,14.98
2019-04-03T02:31:10.208Z,12.60
2019-04-03T02:33:38.806Z,9.93
2019-04-03T02:36:06.864Z,11.02
2019-04-03T02:38:34.928Z,9.82
2019-04-03T02:41:04.941Z,11.53
2019-04-03T02:43:32.035Z,10.38
2019-04-03T02:45:59.865Z,9.32
2019-04-03T02:48:27.971Z,10.98
2019-04-03T02:50:55.954Z,9.95
2019-04-03T02:53:23.993Z,11.68
2019-04-03T02:55:52.135Z,9.13
2019-04-03T02:58:22.223Z,11.10
2019-04-03T03:00:49.426Z,9.88
2019-04-03T03:03:18.537Z,11.40
2019-04-03T03:05:45.863Z,10.10
2019-04-03T03:08:13.926Z,10.85
2019-04-03T03:10:42.002Z,9.38
2019-04-03T03:13:10.049Z,10.80
2019-04-03T03:15:38.905Z,10.98
2019-04-03T03:18:07.043Z,11.55
2019-04-03T03:20:38.408Z,11.55
2019-04-03T03:23:04.008Z,10.00
2019-04-03T03:25:33.583Z,12.68
2019-04-03T03:28:00.817Z,11.68
2019-04-03T03:30:38.979Z,9.25
2019-04-03T03:33:21.713Z,12.32
2019-04-03T03:35:31.185Z,10.75
2019-04-03T03:37:53.961Z,12.93
2019-04-03T03:40:22.632Z,11.98
2019-04-03T03:42:50.692Z,10.85
2019-04-03T03:45:20.603Z,9.43
2019-04-03T03:47:46.830Z,10.05
2019-04-03T03:50:15.151Z,10.75
2019-04-03T03:52:43.851Z,10.00
2019-04-03T03:55:11.864Z,9.85
2019-04-03T03:57:40.451Z,10.50
2019-04-03T04:00:08.013Z,11.07
2019-04-03T04:02:36.796Z,11.93
2019-04-03T04:05:04.135Z,11.73
2019-04-03T04:07:35.913Z,9.93
2019-04-03T04:10:00.271Z,10.27
2019-04-03T04:12:29.097Z,11.50
2019-04-03T04:14:57.601Z,10.10
2019-04-03T04:17:25.659Z,11.10
2019-04-03T04:19:53.284Z,11.48
2019-04-03T04:22:21.370Z,10.30
2019-04-03T04:24:49.441Z,12.37
2019-04-03T04:27:18.223Z,11.75
2019-04-03T04:29:46.274Z,10.50
2019-04-03T04:32:15.430Z,12.37
2019-04-03T04:34:43.269Z,13.52
2019-04-03T04:37:11.328Z,11.25
2019-04-03T04:39:40.208Z,11.02
2019-04-03T04:42:08.261Z,10.13
2019-04-03T04:44:37.183Z,12.75
2019-04-03T04:47:05.222Z,10.15
2019-04-03T04:49:34.141Z,11.63
2019-04-03T04:52:02.480Z,10.13
2019-04-03T04:54:30.957Z,12.25
2019-04-03T04:56:58.344Z,11.10
2019-04-03T04:59:27.375Z,13.30
2019-04-03T05:01:55.426Z,10.35
2019-04-03T05:04:25.304Z,10.82
2019-04-03T05:06:51.642Z,11.90
2019-04-03T05:09:20.487Z,11.02
2019-04-03T05:11:48.499Z,10.10
2019-04-03T05:14:17.991Z,15.13
2019-04-03T05:16:45.605Z,13.77
2019-04-03T05:19:18.434Z,13.23
2019-04-03T05:21:41.531Z,14.53
2019-04-03T05:24:12.697Z,13.57
2019-04-03T05:26:37.655Z,11.30
2019-04-03T05:29:05.720Z,13.32
2019-04-03T05:31:33.795Z,12.35
2019-04-03T05:34:01.846Z,12.82
2019-04-03T05:36:29.934Z,12.30
2019-04-03T05:38:58.227Z,14.07
2019-04-03T05:41:28.372Z,12.45
2019-04-03T05:43:54.115Z,13.52
2019-04-03T05:46:22.942Z,11.95
2019-04-03T05:48:51.146Z,11.98
2019-04-03T05:51:19.076Z,13.07
2019-04-03T05:53:47.132Z,12.30
2019-04-03T05:56:15.181Z,16.45
2019-04-03T05:58:54.652Z,11.52
2019-04-03T06:01:11.837Z,11.87
2019-04-03T06:03:44.504Z,16.90
2019-04-03T06:06:07.599Z,11.82
2019-04-03T06:08:36.480Z,11.47
2019-04-03T06:11:08.242Z,12.57
2019-04-03T06:13:32.631Z,13.18
2019-04-03T06:16:00.702Z,13.52
2019-04-03T06:18:31.635Z,10.20
2019-04-03T06:20:57.827Z,14.35
2019-04-03T06:23:26.731Z,12.32
2019-04-03T06:25:55.549Z,13.10
2019-04-03T06:28:23.582Z,11.63
2019-04-03T06:30:52.471Z,13.27
2019-04-03T06:33:20.469Z,15.05
2019-04-03T06:35:48.750Z,13.27
2019-04-03T06:38:16.982Z,13.48
2019-04-03T06:40:44.643Z,11.25
2019-04-03T06:43:12.763Z,15.10
2019-04-03T06:45:43.233Z,11.30
2019-04-03T06:48:08.870Z,11.95
2019-04-03T06:50:37.701Z,11.38
2019-04-03T06:53:05.762Z,12.45
2019-04-03T06:55:35.656Z,13.98
2019-04-03T06:58:01.866Z,12.40
2019-04-03T07:00:30.680Z,13.07
2019-04-03T07:02:58.735Z,14.30
2019-04-03T07:05:27.749Z,12.93
2019-04-03T07:07:55.614Z,14.87
2019-04-03T07:10:25.858Z,14.23
2019-04-03T07:12:52.195Z,15.52
2019-04-03T07:15:20.343Z,13.98
2019-04-03T07:17:48.388Z,11.55
2019-04-03T07:20:19.347Z,14.55
2019-04-03T07:22:44.538Z,13.65
2019-04-03T07:25:12.628Z,14.13
2019-04-03T07:27:42.232Z,15.23
2019-04-03T07:30:08.758Z,14.07
2019-04-03T07:32:36.928Z,17.40
2019-04-03T07:35:09.340Z,12.45
2019-04-03T07:37:33.795Z,11.32
2019-04-03T07:40:01.861Z,10.80
2019-04-03T07:42:29.947Z,12.30
2019-04-03T07:44:57.984Z,13.35
2019-04-03T07:47:26.062Z,15.00
2019-04-03T07:49:54.266Z,17.75
2019-04-03T07:52:22.184Z,13.40
2019-04-03T07:54:52.761Z,12.95
2019-04-03T07:57:20.165Z,8.73
2019-04-03T07:59:48.685Z,8.25
2019-04-03T08:02:16.723Z,14.25
2019-04-03T08:04:45.810Z,11.82
2019-04-03T08:07:13.578Z,9.90
2019-04-03T08:12:17.993Z,8.95
2019-04-03T08:14:45.130Z,9.82
2019-04-03T08:17:13.544Z,9.93
2019-04-03T08:19:41.488Z,10.32
2019-04-03T08:22:10.003Z,8.00
2019-04-03T08:24:39.669Z,15.82
2019-04-03T08:27:08.161Z,10.20
2019-04-03T08:29:37.914Z,10.43
2019-04-03T08:32:03.830Z,6.80
2019-04-03T08:34:32.215Z,10.13
2019-04-03T08:37:02.090Z,9.02
2019-04-03T08:39:29.502Z,8.37
2019-04-03T08:41:58.369Z,7.97
2019-04-03T08:44:26.416Z,8.65
2019-04-03T08:46:54.498Z,8.20
2019-04-03T08:49:25.792Z,7.17
2019-04-03T08:51:52.362Z,8.93
2019-04-03T08:54:20.119Z,7.35
2019-04-03T08:56:49.482Z,7.93
2019-04-03T08:59:17.197Z,8.95
2019-04-03T09:01:45.188Z,8.93
2019-04-03T09:04:13.222Z,7.97
2019-04-03T09:06:42.040Z,6.90
2019-04-03T09:09:10.832Z,7.10
2019-04-03T09:11:38.875Z,9.73
2019-04-03T09:14:06.926Z,8.82
2019-04-03T09:16:34.991Z,10.85
2019-04-03T09:19:03.038Z,8.48
2019-04-03T09:21:31.076Z,7.20
2019-04-03T09:23:59.122Z,9.25
2019-04-03T09:26:27.947Z,9.38
2019-04-03T09:28:56.054Z,7.82
2019-04-03T09:31:24.102Z,10.50
2019-04-03T09:33:52.146Z,7.50
2019-04-03T09:36:20.336Z,6.95
2019-04-03T09:38:48.285Z,7.60
2019-04-03T09:41:19.226Z,9.33
2019-04-03T09:43:45.302Z,9.52
2019-04-03T09:46:13.453Z,8.68
2019-04-03T09:48:41.382Z,8.48
2019-04-03T09:51:09.853Z,8.77
2019-04-03T09:53:37.700Z,9.02
2019-04-03T09:56:08.067Z,7.90
2019-04-03T09:58:35.583Z,10.10
2019-04-03T10:01:02.781Z,8.68
2019-04-03T10:03:31.624Z,8.20
2019-04-03T10:06:00.165Z,9.48
2019-04-03T10:08:27.076Z,10.15
2019-04-03T10:10:55.885Z,7.50
2019-04-03T10:13:25.904Z,8.87
2019-04-03T10:15:51.788Z,10.63
2019-04-03T10:18:22.003Z,9.63
2019-04-03T10:20:49.492Z,11.20
2019-04-03T10:23:17.845Z,8.80
2019-04-03T10:25:45.819Z,8.10
2019-04-03T10:28:14.749Z,8.02
2019-04-03T10:30:41.882Z,8.80
2019-04-03T10:33:10.007Z,10.05
2019-04-03T10:35:39.306Z,8.85
2019-04-03T10:38:06.796Z,8.98
2019-04-03T10:40:34.836Z,8.18
2019-04-03T10:43:05.745Z,9.63
2019-04-03T10:45:32.587Z,7.85
2019-04-03T10:48:00.606Z,7.93
2019-04-03T10:50:29.618Z,8.57
2019-04-03T10:52:57.652Z,8.10
2019-04-03T10:55:28.366Z,7.60
2019-04-03T10:57:54.493Z,8.02
2019-04-03T11:00:24.875Z,9.75
2019-04-03T11:02:50.824Z,8.48
2019-04-03T11:05:18.911Z,8.13
2019-04-03T11:07:46.979Z,7.90
2019-04-03T11:10:15.079Z,8.82
2019-04-03T11:12:43.313Z,7.28
2019-04-03T11:15:12.616Z,7.50
2019-04-03T11:17:39.461Z,8.30
2019-04-03T11:20:09.696Z,7.10
2019-04-03T11:22:41.040Z,8.35
2019-04-03T11:25:03.519Z,9.75
2019-04-03T11:29:59.645Z,7.85
2019-04-03T11:30:54.040Z,9.00
2019-04-03T11:32:28.430Z,8.30
2019-04-03T11:34:56.684Z,8.00
2019-04-03T11:37:25.066Z,11.07
2019-04-03T11:40:02.822Z,7.63
2019-04-03T11:42:24.863Z,7.60
2019-04-03T11:44:49.644Z,9.10
2019-04-03T11:47:17.828Z,8.07
2019-04-03T11:49:45.754Z,7.95
2019-04-03T11:52:14.081Z,8.88
2019-04-03T11:54:42.792Z,7.97
2019-04-03T11:57:10.648Z,7.20
2019-04-03T11:59:39.459Z,7.28
2019-04-03T12:02:08.542Z,7.37
2019-04-03T12:04:36.427Z,7.47
2019-04-03T12:07:05.198Z,6.30
2019-04-03T12:09:34.000Z,8.57
2019-04-03T12:12:02.784Z,5.20
2019-04-03T12:14:31.206Z,6.50
2019-04-03T12:16:59.642Z,6.37
2019-04-03T12:19:27.744Z,6.62
2019-04-03T12:21:55.777Z,6.28
2019-04-03T12:24:23.910Z,7.43
2019-04-03T12:26:55.062Z,6.30
2019-04-03T12:29:21.386Z,8.63
2019-04-03T12:31:49.147Z,7.65
2019-04-03T12:34:17.294Z,7.93
2019-04-03T12:36:46.190Z,8.25
2019-04-03T12:39:13.382Z,7.55
2019-04-03T12:41:43.082Z,7.87
2019-04-03T12:44:10.146Z,8.27
2019-04-03T12:46:40.833Z,9.35
2019-04-03T12:49:07.438Z,7.90
2019-04-03T12:51:34.348Z,8.18
2019-04-03T12:54:02.347Z,8.75
2019-04-03T12:56:31.387Z,7.47
2019-04-03T12:58:59.932Z,13.33
2019-04-03T13:01:27.975Z,9.65
2019-04-03T13:03:57.315Z,8.90
2019-04-03T13:06:24.839Z,7.85
2019-04-03T13:08:53.864Z,9.48
2019-04-03T13:11:22.292Z,8.85
2019-04-03T13:13:49.866Z,11.50
2019-04-03T13:16:19.779Z,10.93
2019-04-03T13:18:46.225Z,9.05
2019-04-03T13:21:14.610Z,10.50
2019-04-03T13:23:45.187Z,9.93
2019-04-03T13:26:10.748Z,10.88
2019-04-03T13:28:40.424Z,11.68
2019-04-03T13:31:07.623Z,10.10
2019-04-03T13:33:37.734Z,11.63
2019-04-03T13:36:05.293Z,13.43
2019-04-03T13:38:33.649Z,10.00
2019-04-03T13:41:04.664Z,10.60
2019-04-03T13:43:30.475Z,10.23
2019-04-03T13:45:58.276Z,11.63
2019-04-03T13:48:26.430Z,11.27
2019-04-03T13:50:55.514Z,13.80
2019-04-03T13:53:25.078Z,12.73
2019-04-03T13:55:51.171Z,13.18
2019-04-03T13:58:20.597Z,13.00
2019-04-03T14:00:58.653Z,11.00
2019-04-03T14:03:18.228Z,11.75
2019-04-03T14:05:44.124Z,12.43
2019-04-03T14:08:12.875Z,12.82
2019-04-03T14:10:40.103Z,11.00
2019-04-03T14:13:10.766Z,12.52
2019-04-03T14:15:37.001Z,14.27
2019-04-03T14:18:07.774Z,20.02
2019-04-03T14:20:35.538Z,13.55
2019-04-03T14:23:04.848Z,13.73
2019-04-03T14:25:37.609Z,27.80
2019-04-03T14:28:03.184Z,15.18
2019-04-03T14:30:28.979Z,18.52
2019-04-03T14:32:56.702Z,11.25
2019-04-03T14:35:45.942Z,11.63
2019-04-03T14:37:53.198Z,12.55
2019-04-03T14:40:21.095Z,10.68
2019-04-03T14:42:49.002Z,12.57
2019-04-03T14:45:18.111Z,9.88
2019-04-03T14:47:46.388Z,10.32
2019-04-03T14:50:15.211Z,10.60
2019-04-03T14:52:44.143Z,14.48
2019-04-03T14:55:18.979Z,12.32
2019-04-03T14:57:40.299Z,7.95
2019-04-03T15:00:23.497Z,9.63
2019-04-03T15:02:37.033Z,7.20
2019-04-03T15:05:07.410Z,10.23
2019-04-03T15:07:34.172Z,5.87
2019-04-03T15:10:02.151Z,5.45
2019-04-03T15:12:30.270Z,5.90
2019-04-03T15:14:58.331Z,2.83
2019-04-03T15:17:26.381Z,14.20
2019-04-03T15:19:56.132Z,7.57
2019-04-03T15:22:22.542Z,6.68
2019-04-03T15:24:50.646Z,2.22
2019-04-03T15:27:19.022Z,2.80
2019-04-03T15:29:46.867Z,3.60
2019-04-03T15:32:17.643Z,3.90
2019-04-03T15:34:44.223Z,4.85
2019-04-03T15:37:14.154Z,6.60
2019-04-03T15:39:41.449Z,3.40
2019-04-03T15:42:09.900Z,4.80
2019-04-03T15:44:37.943Z,2.97
2019-04-03T15:47:09.275Z,6.70
2019-04-03T15:49:35.519Z,3.30
2019-04-03T15:52:04.242Z,3.35
2019-04-03T15:54:33.285Z,4.30
2019-04-03T15:57:00.331Z,2.65
2019-04-03T15:59:30.879Z,0.85
2019-04-03T16:01:58.135Z,0.85
2019-04-03T16:04:27.032Z,2.37
2019-04-03T16:06:55.471Z,3.33
2019-04-03T16:09:23.479Z,1.05
2019-04-03T16:11:51.962Z,3.87
2019-04-03T16:14:20.431Z,2.17
2019-04-03T16:16:47.248Z,1.35
2019-04-03T16:19:15.278Z,1.47
2019-04-03T16:21:43.680Z,0.85
2019-04-03T16:24:13.282Z,2.58
2019-04-03T16:26:40.677Z,2.42
2019-04-03T16:29:09.286Z,2.70
2019-04-03T16:31:36.523Z,2.70
2019-04-03T16:34:06.903Z,1.98
2019-04-03T16:36:32.587Z,1.70
2019-04-03T16:39:01.976Z,2.50
2019-04-03T16:41:29.490Z,1.23
2019-04-03T16:43:58.314Z,2.80
2019-04-03T16:46:26.357Z,1.00
2019-04-03T16:48:54.411Z,1.70
2019-04-03T16:51:22.475Z,0.85
2019-04-03T16:53:50.585Z,2.42
2019-04-03T16:56:19.019Z,1.77
2019-04-03T16:58:47.410Z,4.53
2019-04-03T17:01:15.514Z,3.27
2019-04-03T17:03:43.626Z,2.25
2019-04-03T17:06:13.680Z,5.67
2019-04-03T17:08:39.700Z,1.80
2019-04-03T17:11:07.763Z,2.92
2019-04-03T17:13:36.578Z,3.25
2019-04-03T17:16:04.939Z,5.70
2019-04-03T17:18:33.531Z,3.03
2019-04-03T17:21:01.563Z,1.85
2019-04-03T17:23:31.207Z,2.83
2019-04-03T17:25:59.368Z,2.20
2019-04-03T17:28:28.163Z,2.28
2019-04-03T17:30:56.174Z,1.47
2019-04-03T17:33:24.620Z,2.40
2019-04-03T17:35:52.280Z,1.30
2019-04-03T17:38:20.415Z,8.13
2019-04-03T17:40:49.147Z,3.55
2019-04-03T17:43:17.237Z,1.60
2019-04-03T17:45:46.459Z,1.35
2019-04-03T17:48:14.137Z,2.85
2019-04-03T17:50:42.172Z,1.83
2019-04-03T17:53:10.203Z,2.40
2019-04-03T17:55:41.106Z,2.72
2019-04-03T17:58:06.282Z,5.03
2019-04-03T18:00:34.335Z,2.78
2019-04-03T18:03:02.378Z,2.40
2019-04-03T18:05:33.103Z,1.20
2019-04-03T18:07:58.863Z,1.20
2019-04-03T18:10:26.611Z,1.23
2019-04-03T18:12:54.660Z,1.55
2019-04-03T18:15:23.468Z,1.70
2019-04-03T18:17:51.504Z,2.10
2019-04-03T18:20:20.151Z,3.05
2019-04-03T18:22:50.355Z,2.05
2019-04-03T18:25:17.154Z,1.45
2019-04-03T18:27:45.245Z,2.47
2019-04-03T18:30:13.306Z,1.52
2019-04-03T18:32:41.338Z,3.50
2019-04-03T18:35:09.403Z,1.42
2019-04-03T18:37:40.458Z,4.15
2019-04-03T18:40:05.512Z,11.63
2019-04-03T18:42:33.565Z,8.27
2019-04-03T18:45:02.447Z,11.00
2019-04-03T18:47:40.518Z,7.22
2019-04-03T18:50:02.905Z,8.52
2019-04-03T18:52:27.359Z,8.65
2019-04-03T18:54:55.422Z,5.32
2019-04-03T18:57:24.221Z,6.82
2019-04-03T18:59:53.033Z,5.65
2019-04-03T19:02:21.099Z,3.03
2019-04-03T19:05:00.832Z,3.90
2019-04-03T19:07:20.068Z,3.75
2019-04-03T19:09:45.416Z,3.30
2019-04-03T19:12:13.558Z,3.70
2019-04-03T19:14:42.261Z,3.25
2019-04-03T19:17:10.300Z,2.62
2019-04-03T19:19:38.348Z,2.90
2019-04-03T19:22:06.389Z,2.65
2019-04-03T19:24:35.214Z,2.67
2019-04-03T19:27:03.228Z,2.42
2019-04-03T19:29:31.306Z,2.00
2019-04-03T19:31:59.344Z,2.58
2019-04-03T19:34:28.073Z,2.30
2019-04-03T19:36:56.142Z,3.60
2019-04-03T19:39:24.166Z,2.55
2019-04-03T19:41:52.267Z,2.65
2019-04-03T19:44:21.035Z,2.50
2019-04-03T19:46:49.963Z,3.10
2019-04-03T19:49:18.019Z,4.32
2019-04-03T19:51:46.083Z,3.30
2019-04-03T19:54:16.539Z,3.10
2019-04-03T19:56:43.676Z,2.50
2019-04-03T19:59:11.718Z,2.78
2019-04-03T20:01:40.635Z,2.80
2019-04-03T20:04:08.674Z,3.60
2019-04-03T20:06:37.487Z,3.33
2019-04-03T20:09:05.548Z,3.40
2019-04-03T20:11:34.094Z,2.58
2019-04-03T20:14:01.676Z,3.67
2019-04-03T20:16:30.482Z,2.35
2019-04-03T20:18:58.547Z,2.12
2019-04-03T20:21:26.584Z,1.87
2019-04-03T20:23:54.698Z,2.25
2019-04-03T20:26:22.766Z,1.70
2019-04-03T20:28:50.798Z,1.90
2019-04-03T20:31:18.840Z,3.20
2019-04-03T20:33:46.843Z,1.77
2019-04-03T20:36:16.733Z,1.87
2019-04-03T20:38:44.427Z,3.77
2019-04-03T20:41:13.346Z,2.60
2019-04-03T20:43:43.299Z,2.30
2019-04-03T20:46:09.683Z,2.00
2019-04-03T20:48:37.751Z,2.40
2019-04-03T20:51:08.754Z,2.03
2019-04-03T20:53:33.864Z,1.90
2019-04-03T20:56:01.908Z,2.55
2019-04-03T20:58:29.935Z,1.80
2019-04-03T21:01:06.002Z,1.60
2019-04-03T21:03:26.049Z,1.52
2019-04-03T21:05:54.068Z,1.60
2019-04-03T21:08:22.116Z,1.20
2019-04-03T21:10:50.186Z,2.40
2019-04-03T21:13:18.237Z,1.33
2019-04-03T21:15:47.133Z,1.33
2019-04-03T21:18:15.168Z,1.10
2019-04-03T21:20:43.199Z,1.30
2019-04-03T21:23:11.301Z,1.10
2019-04-03T21:25:40.744Z,1.40
2019-04-03T21:28:08.986Z,1.30
2019-04-03T21:30:35.368Z,1.30
2019-04-03T21:33:04.251Z,1.33
2019-04-03T21:35:33.219Z,1.70
2019-04-03T21:38:00.371Z,1.40
2019-04-03T21:40:29.199Z,1.37
2019-04-03T21:42:57.929Z,1.10
2019-04-03T21:45:26.032Z,1.30
2019-04-03T21:47:54.104Z,1.37
2019-04-03T21:50:22.879Z,2.43
2019-04-03T21:52:53.429Z,1.12
2019-04-03T21:55:19.815Z,1.08
2019-04-03T21:57:47.856Z,1.45
2019-04-03T22:00:15.974Z,1.10
2019-04-03T22:02:45.205Z,1.60
2019-04-03T22:05:12.016Z,1.02
2019-04-03T22:07:40.922Z,1.20
2019-04-03T22:10:09.343Z,1.58
2019-04-03T22:12:37.417Z,1.60
2019-04-03T22:15:05.042Z,1.20
2019-04-03T22:17:33.103Z,1.00
2019-04-03T22:20:01.143Z,1.42
2019-04-03T22:22:29.163Z,1.07
2019-04-03T22:24:57.221Z,1.30
2019-04-03T22:27:25.262Z,1.58
2019-04-03T22:29:54.057Z,1.80
2019-04-03T22:32:23.078Z,1.10
2019-04-03T22:34:50.917Z,1.55
2019-04-03T22:37:19.733Z,1.80
2019-04-03T22:39:47.874Z,1.30
2019-04-03T22:42:16.691Z,1.83
2019-04-03T22:44:47.665Z,2.70
2019-04-03T22:47:12.782Z,1.30
2019-04-03T22:49:40.835Z,1.10
2019-04-03T22:52:09.409Z,1.23
2019-04-03T22:54:38.673Z,1.30
2019-04-03T22:57:06.825Z,1.37
2019-04-03T22:59:35.726Z,1.48
2019-04-03T23:02:03.795Z,1.70
2019-04-03T23:04:32.575Z,1.27
2019-04-03T23:07:01.371Z,1.50
2019-04-03T23:09:29.410Z,1.70
2019-04-03T23:11:57.442Z,2.58
2019-04-03T23:14:25.481Z,1.50
2019-04-03T23:16:54.375Z,1.65
2019-04-03T23:19:22.446Z,1.20
2019-04-03T23:21:51.219Z,1.50
2019-04-03T23:24:19.375Z,1.30
2019-04-03T23:26:48.084Z,1.30
2019-04-03T23:29:16.118Z,1.40
2019-04-03T23:31:44.945Z,1.20
2019-04-03T23:34:12.183Z,1.52
2019-04-03T23:36:41.094Z,1.40
2019-04-03T23:39:09.979Z,1.25
2019-04-03T23:41:38.016Z,1.60
2019-04-03T23:44:06.038Z,1.50
2019-04-03T23:46:34.065Z,1.60
2019-04-03T23:49:02.883Z,1.50
2019-04-03T23:51:30.907Z,1.42
2019-04-03T23:53:58.944Z,1.50
2019-04-03T23:56:26.982Z,1.58
2019-04-03T23:58:55.022Z,1.77
